Ottumwa Regional Airport
KOTM : rendu visible

Aérodrome :











RETROUVEZ-NOUS SUR...

 
LOGIN :

S'inscrire | Disclaimer

   EN    FR    IT 

 









Légende :    VFR   VFR Marginal   IFR   IFR Intensif   IFR Très Intensif
Visi : 
Plafond : 
>= 8 km
>= 3000ft
5 à 8 km
1000 à 3000 ft
1500m à 5 km
500 à 1000 ft
800 à 1500m
200 à 500 ft
< 800m
< 200 ft
Symboles :   Orages  Brouillard  Fortes neiges  Fortes précipitations  Vent > 20 kt







- Altitude de l'aérodrome : 845 ft
- Code IATA : OTM


KOTM - Ottumwa Regional

DERNIER METAR :
  • 180553Z AUTO 15008KT 10SM CLR 23/19 A3002 RMK AO2 SLP156 T02280194 10272 20228 403060194 55001

METARs EXPIRÉS :
  • 180453Z AUTO 14008KT 10SM CLR 23/20 A3001 RMK AO2 SLP156 T02330200
  • 180353Z AUTO 14009KT 10SM CLR 23/20 A3001 RMK AO2 SLP157 T02330200

TAF KOTM
Valide du 18 à 06h jusqu'au 19 à 06h UTC


180520Z 1806/1906 14008KT P6SM FEW250
FM181500 17009KT P6SM SCT250
Pas de NOTAMs connus pour ce terrain.



MET'MAP, la Météo Aéronautique d'un coup d'oeil ! - Copyright ORBIFLY Décembre 2007 - Disclaimer

ORBIFLY MET'MAP TEAM :

Programmation & Développement : Alexandra Zaïnal
Conception & Développement : Baudouin d'Aumeries
Co-Programmation & Développement : Marc-Olivier Méhu
Soutien technique & logistique : Manuel Goepfert

Contact : metmap@orbifly.com




SOURCES & CREDITS :

   NOAA       Earth
Advisory